Terminal Aerodrome Forecast
Issued by NWS Duluth, MN

Home | Current Version | Previous Version | Text Only | Print | Product List | Glossary On
Versions: 1 2 3 4 5 6 7 8 9 10 11 12 13 14 15 16
000
FTUS43 KDLH 181720
TAFINL
TAF
KINL 181720Z 1818/1918 27020G30KT P6SM SCT120
     FM190000 25012G20KT P6SM SKC
     FM190100 26011KT P6SM SKC WS020/28050KT
     FM190600 26007KT P6SM SKC WS020/29045KT
     FM191000 26008KT P6SM SKC=

USA.gov is the U.S. government's official web portal to all federal, state and local government web resources and services.